sensor_id;sensor_type;location;lat;lon;timestamp;P1;durP1;ratioP1;P2;durP2;ratioP2
12425;SDS011;6277;49.824;9.562;2023-07-30T00:01:41;1.63;;;1.02;;
12425;SDS011;6277;49.824;9.562;2023-07-30T00:04:07;1.02;;;0.93;;
12425;SDS011;6277;49.824;9.562;2023-07-30T00:06:33;1.73;;;0.90;;
12425;SDS011;6277;49.824;9.562;2023-07-30T00:08:58;1.23;;;0.90;;
12425;SDS011;6277;49.824;9.562;2023-07-30T00:11:24;1.60;;;0.90;;
12425;SDS011;6277;49.824;9.562;2023-07-30T00:13:49;1.80;;;0.70;;
12425;SDS011;6277;49.824;9.562;2023-07-30T00:16:15;0.75;;;0.70;;
12425;SDS011;6277;49.824;9.562;2023-07-30T00:18:40;1.08;;;0.70;;
12425;SDS011;6277;49.824;9.562;2023-07-30T00:21:06;0.77;;;0.60;;
12425;SDS011;6277;49.824;9.562;2023-07-30T00:23:31;0.60;;;0.52;;
12425;SDS011;6277;49.824;9.562;2023-07-30T00:25:57;0.75;;;0.65;;
12425;SDS011;6277;49.824;9.562;2023-07-30T00:28:22;0.75;;;0.60;;
12425;SDS011;6277;49.824;9.562;2023-07-30T00:30:48;1.73;;;0.70;;
12425;SDS011;6277;49.824;9.562;2023-07-30T00:33:13;1.17;;;0.70;;
12425;SDS011;6277;49.824;9.562;2023-07-30T00:35:39;1.13;;;0.70;;
12425;SDS011;6277;49.824;9.562;2023-07-30T00:38:05;1.10;;;0.68;;
12425;SDS011;6277;49.824;9.562;2023-07-30T00:40:30;0.80;;;0.55;;
12425;SDS011;6277;49.824;9.562;2023-07-30T00:42:56;2.35;;;0.63;;
12425;SDS011;6277;49.824;9.562;2023-07-30T00:45:21;1.15;;;0.75;;
12425;SDS011;6277;49.824;9.562;2023-07-30T00:47:47;0.85;;;0.57;;
12425;SDS011;6277;49.824;9.562;2023-07-30T00:50:13;1.48;;;0.68;;
12425;SDS011;6277;49.824;9.562;2023-07-30T00:52:40;1.38;;;0.70;;
12425;SDS011;6277;49.824;9.562;2023-07-30T00:55:06;1.40;;;0.80;;
12425;SDS011;6277;49.824;9.562;2023-07-30T00:57:32;1.70;;;1.00;;
12425;SDS011;6277;49.824;9.562;2023-07-30T00:59:59;1.70;;;0.95;;
12425;SDS011;6277;49.824;9.562;2023-07-30T01:02:27;1.23;;;0.77;;
12425;SDS011;6277;49.824;9.562;2023-07-30T01:04:54;1.95;;;0.90;;
12425;SDS011;6277;49.824;9.562;2023-07-30T01:07:19;1.20;;;0.60;;
12425;SDS011;6277;49.824;9.562;2023-07-30T01:09:45;2.05;;;0.70;;
12425;SDS011;6277;49.824;9.562;2023-07-30T01:12:11;5.20;;;0.90;;
12425;SDS011;6277;49.824;9.562;2023-07-30T01:14:36;1.60;;;0.68;;
12425;SDS011;6277;49.824;9.562;2023-07-30T01:17:03;1.35;;;0.63;;
12425;SDS011;6277;49.824;9.562;2023-07-30T01:19:29;1.00;;;0.63;;
12425;SDS011;6277;49.824;9.562;2023-07-30T01:21:55;0.80;;;0.55;;
12425;SDS011;6277;49.824;9.562;2023-07-30T01:24:21;1.17;;;0.70;;
12425;SDS011;6277;49.824;9.562;2023-07-30T01:26:48;1.55;;;0.60;;
12425;SDS011;6277;49.824;9.562;2023-07-30T01:29:21;0.85;;;0.60;;
12425;SDS011;6277;49.824;9.562;2023-07-30T01:31:53;1.25;;;0.60;;
12425;SDS011;6277;49.824;9.562;2023-07-30T01:34:22;1.02;;;0.70;;
12425;SDS011;6277;49.824;9.562;2023-07-30T01:36:51;1.77;;;0.70;;
12425;SDS011;6277;49.824;9.562;2023-07-30T01:39:17;1.08;;;0.77;;
12425;SDS011;6277;49.824;9.562;2023-07-30T01:41:44;0.65;;;0.50;;
12425;SDS011;6277;49.824;9.562;2023-07-30T01:44:09;0.88;;;0.70;;
12425;SDS011;6277;49.824;9.562;2023-07-30T01:46:35;1.20;;;0.70;;
12425;SDS011;6277;49.824;9.562;2023-07-30T01:49:00;1.00;;;0.70;;
12425;SDS011;6277;49.824;9.562;2023-07-30T01:51:26;0.98;;;0.70;;
12425;SDS011;6277;49.824;9.562;2023-07-30T01:53:51;1.27;;;0.70;;
12425;SDS011;6277;49.824;9.562;2023-07-30T01:56:17;1.40;;;0.60;;
12425;SDS011;6277;49.824;9.562;2023-07-30T01:58:42;1.77;;;0.70;;
12425;SDS011;6277;49.824;9.562;2023-07-30T02:01:08;0.63;;;0.63;;
12425;SDS011;6277;49.824;9.562;2023-07-30T02:03:34;0.77;;;0.60;;
12425;SDS011;6277;49.824;9.562;2023-07-30T02:05:59;0.70;;;0.57;;
12425;SDS011;6277;49.824;9.562;2023-07-30T02:08:25;1.30;;;0.73;;
12425;SDS011;6277;49.824;9.562;2023-07-30T02:10:57;0.98;;;0.65;;
12425;SDS011;6277;49.824;9.562;2023-07-30T02:13:24;0.80;;;0.77;;
12425;SDS011;6277;49.824;9.562;2023-07-30T02:15:50;0.68;;;0.60;;
12425;SDS011;6277;49.824;9.562;2023-07-30T02:18:15;2.10;;;0.70;;
12425;SDS011;6277;49.824;9.562;2023-07-30T02:20:41;0.80;;;0.70;;
12425;SDS011;6277;49.824;9.562;2023-07-30T02:23:07;1.88;;;0.80;;
12425;SDS011;6277;49.824;9.562;2023-07-30T02:25:32;0.80;;;0.70;;
12425;SDS011;6277;49.824;9.562;2023-07-30T02:27:59;1.00;;;0.70;;
12425;SDS011;6277;49.824;9.562;2023-07-30T02:30:26;0.85;;;0.80;;
12425;SDS011;6277;49.824;9.562;2023-07-30T02:32:51;1.02;;;0.70;;
12425;SDS011;6277;49.824;9.562;2023-07-30T02:35:17;1.40;;;0.75;;
12425;SDS011;6277;49.824;9.562;2023-07-30T02:37:42;1.38;;;0.90;;
12425;SDS011;6277;49.824;9.562;2023-07-30T02:40:08;2.10;;;0.90;;
12425;SDS011;6277;49.824;9.562;2023-07-30T02:42:34;1.30;;;0.95;;
12425;SDS011;6277;49.824;9.562;2023-07-30T02:44:59;1.10;;;0.85;;
12425;SDS011;6277;49.824;9.562;2023-07-30T02:47:25;0.98;;;0.88;;
12425;SDS011;6277;49.824;9.562;2023-07-30T02:49:51;1.30;;;0.88;;
12425;SDS011;6277;49.824;9.562;2023-07-30T02:52:16;1.00;;;0.93;;
12425;SDS011;6277;49.824;9.562;2023-07-30T02:54:42;1.13;;;0.80;;
12425;SDS011;6277;49.824;9.562;2023-07-30T02:57:07;1.55;;;0.85;;
12425;SDS011;6277;49.824;9.562;2023-07-30T02:59:32;1.02;;;0.85;;
12425;SDS011;6277;49.824;9.562;2023-07-30T03:02:02;1.00;;;0.80;;
12425;SDS011;6277;49.824;9.562;2023-07-30T03:04:30;1.20;;;0.85;;
12425;SDS011;6277;49.824;9.562;2023-07-30T03:06:55;1.17;;;0.70;;
12425;SDS011;6277;49.824;9.562;2023-07-30T03:09:21;1.02;;;0.70;;
12425;SDS011;6277;49.824;9.562;2023-07-30T03:11:47;1.45;;;0.80;;
12425;SDS011;6277;49.824;9.562;2023-07-30T03:14:14;0.85;;;0.80;;
12425;SDS011;6277;49.824;9.562;2023-07-30T03:16:39;1.85;;;0.90;;
12425;SDS011;6277;49.824;9.562;2023-07-30T03:19:05;0.90;;;0.80;;
12425;SDS011;6277;49.824;9.562;2023-07-30T03:21:30;1.17;;;0.80;;
12425;SDS011;6277;49.824;9.562;2023-07-30T03:23:56;0.90;;;0.70;;
12425;SDS011;6277;49.824;9.562;2023-07-30T03:26:21;0.70;;;0.65;;
12425;SDS011;6277;49.824;9.562;2023-07-30T03:28:47;1.10;;;0.80;;
12425;SDS011;6277;49.824;9.562;2023-07-30T03:31:13;1.13;;;0.88;;
12425;SDS011;6277;49.824;9.562;2023-07-30T03:33:38;1.10;;;0.80;;
12425;SDS011;6277;49.824;9.562;2023-07-30T03:36:08;1.23;;;0.70;;
12425;SDS011;6277;49.824;9.562;2023-07-30T03:38:35;1.00;;;0.90;;
12425;SDS011;6277;49.824;9.562;2023-07-30T03:41:00;0.65;;;0.65;;
12425;SDS011;6277;49.824;9.562;2023-07-30T03:43:26;1.73;;;0.98;;
12425;SDS011;6277;49.824;9.562;2023-07-30T03:45:51;0.75;;;0.70;;
12425;SDS011;6277;49.824;9.562;2023-07-30T03:48:17;3.08;;;1.70;;
12425;SDS011;6277;49.824;9.562;2023-07-30T03:50:42;1.00;;;0.90;;
12425;SDS011;6277;49.824;9.562;2023-07-30T03:53:07;0.82;;;0.70;;
12425;SDS011;6277;49.824;9.562;2023-07-30T03:55:33;0.95;;;0.82;;
12425;SDS011;6277;49.824;9.562;2023-07-30T03:57:59;1.20;;;0.90;;
12425;SDS011;6277;49.824;9.562;2023-07-30T04:00:24;1.15;;;0.90;;
12425;SDS011;6277;49.824;9.562;2023-07-30T04:02:50;2.33;;;1.00;;
12425;SDS011;6277;49.824;9.562;2023-07-30T04:05:15;1.27;;;0.82;;
12425;SDS011;6277;49.824;9.562;2023-07-30T04:07:41;1.02;;;0.80;;
12425;SDS011;6277;49.824;9.562;2023-07-30T04:10:06;0.75;;;0.75;;
12425;SDS011;6277;49.824;9.562;2023-07-30T04:12:33;1.30;;;1.10;;
12425;SDS011;6277;49.824;9.562;2023-07-30T04:14:58;0.85;;;0.70;;
12425;SDS011;6277;49.824;9.562;2023-07-30T04:17:24;1.17;;;0.93;;
12425;SDS011;6277;49.824;9.562;2023-07-30T04:19:49;1.58;;;0.73;;
12425;SDS011;6277;49.824;9.562;2023-07-30T04:22:15;1.10;;;0.70;;
12425;SDS011;6277;49.824;9.562;2023-07-30T04:24:41;0.85;;;0.80;;
12425;SDS011;6277;49.824;9.562;2023-07-30T04:27:06;1.13;;;0.88;;
12425;SDS011;6277;49.824;9.562;2023-07-30T04:29:32;0.95;;;0.70;;
12425;SDS011;6277;49.824;9.562;2023-07-30T04:31:57;1.08;;;0.98;;
12425;SDS011;6277;49.824;9.562;2023-07-30T04:34:23;0.80;;;0.80;;
12425;SDS011;6277;49.824;9.562;2023-07-30T04:36:48;1.52;;;0.82;;
12425;SDS011;6277;49.824;9.562;2023-07-30T04:39:14;1.15;;;0.90;;
12425;SDS011;6277;49.824;9.562;2023-07-30T04:41:39;1.70;;;1.00;;
12425;SDS011;6277;49.824;9.562;2023-07-30T04:44:05;1.20;;;0.90;;
12425;SDS011;6277;49.824;9.562;2023-07-30T04:46:30;1.27;;;1.08;;
12425;SDS011;6277;49.824;9.562;2023-07-30T04:48:58;1.33;;;0.80;;
12425;SDS011;6277;49.824;9.562;2023-07-30T04:51:23;1.10;;;1.00;;
12425;SDS011;6277;49.824;9.562;2023-07-30T04:53:49;1.00;;;0.93;;
12425;SDS011;6277;49.824;9.562;2023-07-30T04:56:14;1.67;;;0.80;;
12425;SDS011;6277;49.824;9.562;2023-07-30T04:58:40;1.65;;;0.90;;
12425;SDS011;6277;49.824;9.562;2023-07-30T05:01:05;1.83;;;0.70;;
12425;SDS011;6277;49.824;9.562;2023-07-30T05:03:31;0.90;;;0.80;;
12425;SDS011;6277;49.824;9.562;2023-07-30T05:05:56;1.27;;;1.00;;
12425;SDS011;6277;49.824;9.562;2023-07-30T05:08:22;1.10;;;1.00;;
12425;SDS011;6277;49.824;9.562;2023-07-30T05:10:47;1.35;;;1.10;;
12425;SDS011;6277;49.824;9.562;2023-07-30T05:13:13;1.10;;;1.00;;
12425;SDS011;6277;49.824;9.562;2023-07-30T05:15:39;1.27;;;1.15;;
12425;SDS011;6277;49.824;9.562;2023-07-30T05:18:04;1.23;;;0.80;;
12425;SDS011;6277;49.824;9.562;2023-07-30T05:20:30;1.27;;;1.17;;
12425;SDS011;6277;49.824;9.562;2023-07-30T05:22:55;0.80;;;0.80;;
12425;SDS011;6277;49.824;9.562;2023-07-30T05:25:21;1.50;;;0.90;;
12425;SDS011;6277;49.824;9.562;2023-07-30T05:27:47;2.28;;;0.80;;
12425;SDS011;6277;49.824;9.562;2023-07-30T05:30:13;1.10;;;1.00;;
12425;SDS011;6277;49.824;9.562;2023-07-30T05:32:38;1.02;;;0.90;;
12425;SDS011;6277;49.824;9.562;2023-07-30T05:35:04;1.23;;;1.10;;
12425;SDS011;6277;49.824;9.562;2023-07-30T05:37:30;1.00;;;0.90;;
12425;SDS011;6277;49.824;9.562;2023-07-30T05:39:56;1.52;;;0.73;;
12425;SDS011;6277;49.824;9.562;2023-07-30T05:42:21;1.30;;;1.00;;
12425;SDS011;6277;49.824;9.562;2023-07-30T05:44:47;0.98;;;0.90;;
12425;SDS011;6277;49.824;9.562;2023-07-30T05:47:12;1.05;;;0.90;;
12425;SDS011;6277;49.824;9.562;2023-07-30T05:49:38;1.00;;;0.90;;
12425;SDS011;6277;49.824;9.562;2023-07-30T05:52:04;0.70;;;0.70;;
12425;SDS011;6277;49.824;9.562;2023-07-30T05:54:30;1.02;;;0.90;;
12425;SDS011;6277;49.824;9.562;2023-07-30T05:56:55;1.40;;;0.90;;
12425;SDS011;6277;49.824;9.562;2023-07-30T05:59:21;0.82;;;0.68;;
12425;SDS011;6277;49.824;9.562;2023-07-30T06:01:46;0.90;;;0.85;;
12425;SDS011;6277;49.824;9.562;2023-07-30T06:04:12;1.50;;;0.85;;
12425;SDS011;6277;49.824;9.562;2023-07-30T06:06:37;2.05;;;1.20;;
12425;SDS011;6277;49.824;9.562;2023-07-30T06:09:03;1.00;;;0.90;;
12425;SDS011;6277;49.824;9.562;2023-07-30T06:11:28;1.33;;;0.80;;
12425;SDS011;6277;49.824;9.562;2023-07-30T06:13:54;1.15;;;0.88;;
12425;SDS011;6277;49.824;9.562;2023-07-30T06:16:19;1.95;;;1.13;;
12425;SDS011;6277;49.824;9.562;2023-07-30T06:18:45;0.93;;;0.82;;
12425;SDS011;6277;49.824;9.562;2023-07-30T06:21:11;0.70;;;0.70;;
12425;SDS011;6277;49.824;9.562;2023-07-30T06:23:37;1.45;;;0.80;;
12425;SDS011;6277;49.824;9.562;2023-07-30T06:26:02;1.63;;;0.90;;
12425;SDS011;6277;49.824;9.562;2023-07-30T06:28:28;1.13;;;1.02;;
12425;SDS011;6277;49.824;9.562;2023-07-30T06:30:53;1.73;;;1.35;;
12425;SDS011;6277;49.824;9.562;2023-07-30T06:33:19;1.92;;;1.00;;
12425;SDS011;6277;49.824;9.562;2023-07-30T06:35:44;1.50;;;0.90;;
12425;SDS011;6277;49.824;9.562;2023-07-30T06:38:10;1.25;;;0.90;;
12425;SDS011;6277;49.824;9.562;2023-07-30T06:40:35;0.88;;;0.75;;
12425;SDS011;6277;49.824;9.562;2023-07-30T06:43:01;1.88;;;1.00;;
12425;SDS011;6277;49.824;9.562;2023-07-30T06:45:27;2.10;;;0.82;;
12425;SDS011;6277;49.824;9.562;2023-07-30T06:47:53;2.00;;;1.20;;
12425;SDS011;6277;49.824;9.562;2023-07-30T06:50:18;1.27;;;1.17;;
12425;SDS011;6277;49.824;9.562;2023-07-30T06:52:44;2.28;;;1.20;;
12425;SDS011;6277;49.824;9.562;2023-07-30T06:55:09;1.35;;;0.80;;
12425;SDS011;6277;49.824;9.562;2023-07-30T06:57:35;1.48;;;0.85;;
12425;SDS011;6277;49.824;9.562;2023-07-30T07:00:01;1.25;;;0.80;;
12425;SDS011;6277;49.824;9.562;2023-07-30T07:02:27;0.80;;;0.80;;
12425;SDS011;6277;49.824;9.562;2023-07-30T07:04:53;1.35;;;0.90;;
12425;SDS011;6277;49.824;9.562;2023-07-30T07:07:19;0.93;;;0.80;;
12425;SDS011;6277;49.824;9.562;2023-07-30T07:09:45;2.00;;;0.80;;
12425;SDS011;6277;49.824;9.562;2023-07-30T07:12:11;1.98;;;0.75;;
12425;SDS011;6277;49.824;9.562;2023-07-30T07:14:36;0.85;;;0.70;;
12425;SDS011;6277;49.824;9.562;2023-07-30T07:17:02;1.00;;;0.70;;
12425;SDS011;6277;49.824;9.562;2023-07-30T07:19:27;0.73;;;0.68;;
12425;SDS011;6277;49.824;9.562;2023-07-30T07:21:53;0.95;;;0.85;;
12425;SDS011;6277;49.824;9.562;2023-07-30T07:24:19;0.63;;;0.63;;
12425;SDS011;6277;49.824;9.562;2023-07-30T07:26:44;0.93;;;0.80;;
12425;SDS011;6277;49.824;9.562;2023-07-30T07:29:10;1.00;;;0.80;;
12425;SDS011;6277;49.824;9.562;2023-07-30T07:31:35;1.13;;;0.80;;
12425;SDS011;6277;49.824;9.562;2023-07-30T07:34:01;1.13;;;0.70;;
12425;SDS011;6277;49.824;9.562;2023-07-30T07:36:26;0.93;;;0.80;;
12425;SDS011;6277;49.824;9.562;2023-07-30T07:38:52;1.02;;;0.55;;
12425;SDS011;6277;49.824;9.562;2023-07-30T07:41:17;1.05;;;0.70;;
12425;SDS011;6277;49.824;9.562;2023-07-30T07:43:44;0.80;;;0.70;;
12425;SDS011;6277;49.824;9.562;2023-07-30T07:46:11;0.85;;;0.60;;
12425;SDS011;6277;49.824;9.562;2023-07-30T07:48:40;0.80;;;0.70;;
12425;SDS011;6277;49.824;9.562;2023-07-30T07:51:07;1.15;;;0.75;;
12425;SDS011;6277;49.824;9.562;2023-07-30T07:53:34;0.60;;;0.60;;
12425;SDS011;6277;49.824;9.562;2023-07-30T07:55:59;1.67;;;0.70;;
12425;SDS011;6277;49.824;9.562;2023-07-30T07:58:25;0.80;;;0.70;;
12425;SDS011;6277;49.824;9.562;2023-07-30T08:00:53;1.38;;;0.77;;
12425;SDS011;6277;49.824;9.562;2023-07-30T08:03:19;0.65;;;0.60;;
12425;SDS011;6277;49.824;9.562;2023-07-30T08:05:45;0.60;;;0.60;;
12425;SDS011;6277;49.824;9.562;2023-07-30T08:08:10;0.73;;;0.70;;
12425;SDS011;6277;49.824;9.562;2023-07-30T08:10:39;1.58;;;0.80;;
12425;SDS011;6277;49.824;9.562;2023-07-30T08:13:07;0.70;;;0.50;;
12425;SDS011;6277;49.824;9.562;2023-07-30T08:15:33;1.02;;;0.63;;
12425;SDS011;6277;49.824;9.562;2023-07-30T08:17:58;0.65;;;0.50;;
12425;SDS011;6277;49.824;9.562;2023-07-30T08:20:24;0.68;;;0.60;;
12425;SDS011;6277;49.824;9.562;2023-07-30T08:22:49;0.80;;;0.52;;
12425;SDS011;6277;49.824;9.562;2023-07-30T08:25:15;0.82;;;0.70;;
12425;SDS011;6277;49.824;9.562;2023-07-30T08:27:40;0.98;;;0.70;;
12425;SDS011;6277;49.824;9.562;2023-07-30T08:30:07;0.60;;;0.60;;
12425;SDS011;6277;49.824;9.562;2023-07-30T08:32:33;0.60;;;0.60;;
12425;SDS011;6277;49.824;9.562;2023-07-30T08:34:59;0.93;;;0.60;;
12425;SDS011;6277;49.824;9.562;2023-07-30T08:37:24;0.77;;;0.50;;
12425;SDS011;6277;49.824;9.562;2023-07-30T08:39:50;1.00;;;0.60;;
12425;SDS011;6277;49.824;9.562;2023-07-30T08:42:16;0.77;;;0.70;;
12425;SDS011;6277;49.824;9.562;2023-07-30T08:44:42;0.70;;;0.60;;
12425;SDS011;6277;49.824;9.562;2023-07-30T08:47:07;0.52;;;0.45;;
12425;SDS011;6277;49.824;9.562;2023-07-30T08:49:33;0.75;;;0.50;;
12425;SDS011;6277;49.824;9.562;2023-07-30T08:51:59;0.95;;;0.60;;
12425;SDS011;6277;49.824;9.562;2023-07-30T08:54:27;1.33;;;0.60;;
12425;SDS011;6277;49.824;9.562;2023-07-30T08:56:56;1.27;;;0.70;;
12425;SDS011;6277;49.824;9.562;2023-07-30T08:59:22;2.35;;;0.68;;
12425;SDS011;6277;49.824;9.562;2023-07-30T09:01:50;1.50;;;0.90;;
12425;SDS011;6277;49.824;9.562;2023-07-30T09:04:17;1.05;;;0.60;;
12425;SDS011;6277;49.824;9.562;2023-07-30T09:06:43;1.30;;;0.50;;
12425;SDS011;6277;49.824;9.562;2023-07-30T09:09:13;2.15;;;0.68;;
12425;SDS011;6277;49.824;9.562;2023-07-30T09:11:38;1.75;;;0.55;;
12425;SDS011;6277;49.824;9.562;2023-07-30T09:14:05;0.90;;;0.57;;
12425;SDS011;6277;49.824;9.562;2023-07-30T09:16:31;0.80;;;0.52;;
12425;SDS011;6277;49.824;9.562;2023-07-30T09:18:57;1.63;;;0.70;;
12425;SDS011;6277;49.824;9.562;2023-07-30T09:21:32;0.75;;;0.65;;
12425;SDS011;6277;49.824;9.562;2023-07-30T09:24:03;0.75;;;0.57;;
12425;SDS011;6277;49.824;9.562;2023-07-30T09:26:44;0.75;;;0.50;;
12425;SDS011;6277;49.824;9.562;2023-07-30T09:29:11;0.90;;;0.50;;
12425;SDS011;6277;49.824;9.562;2023-07-30T09:31:45;0.68;;;0.52;;
12425;SDS011;6277;49.824;9.562;2023-07-30T09:34:22;1.88;;;0.60;;
12425;SDS011;6277;49.824;9.562;2023-07-30T09:36:53;0.65;;;0.60;;
12425;SDS011;6277;49.824;9.562;2023-07-30T09:41:51;0.77;;;0.60;;
12425;SDS011;6277;49.824;9.562;2023-07-30T09:44:23;0.52;;;0.50;;
12425;SDS011;6277;49.824;9.562;2023-07-30T09:46:49;0.50;;;0.43;;
12425;SDS011;6277;49.824;9.562;2023-07-30T09:49:15;1.45;;;0.50;;
12425;SDS011;6277;49.824;9.562;2023-07-30T09:51:42;0.60;;;0.45;;
12425;SDS011;6277;49.824;9.562;2023-07-30T09:54:08;0.75;;;0.68;;
12425;SDS011;6277;49.824;9.562;2023-07-30T09:56:35;0.50;;;0.50;;
12425;SDS011;6277;49.824;9.562;2023-07-30T09:59:02;1.00;;;0.60;;
12425;SDS011;6277;49.824;9.562;2023-07-30T10:01:33;0.70;;;0.40;;
12425;SDS011;6277;49.824;9.562;2023-07-30T10:04:08;0.93;;;0.60;;
12425;SDS011;6277;49.824;9.562;2023-07-30T10:06:35;2.15;;;0.70;;
12425;SDS011;6277;49.824;9.562;2023-07-30T10:09:05;0.68;;;0.60;;
12425;SDS011;6277;49.824;9.562;2023-07-30T10:11:34;0.70;;;0.68;;
12425;SDS011;6277;49.824;9.562;2023-07-30T10:14:01;0.70;;;0.70;;
12425;SDS011;6277;49.824;9.562;2023-07-30T10:16:27;0.68;;;0.60;;
12425;SDS011;6277;49.824;9.562;2023-07-30T10:18:56;0.82;;;0.80;;
12425;SDS011;6277;49.824;9.562;2023-07-30T10:21:23;3.03;;;0.90;;
12425;SDS011;6277;49.824;9.562;2023-07-30T10:23:57;1.17;;;0.90;;
12425;SDS011;6277;49.824;9.562;2023-07-30T10:26:28;0.80;;;0.70;;
12425;SDS011;6277;49.824;9.562;2023-07-30T10:29:15;0.75;;;0.73;;
12425;SDS011;6277;49.824;9.562;2023-07-30T10:31:44;1.50;;;0.90;;
12425;SDS011;6277;49.824;9.562;2023-07-30T10:34:27;1.75;;;0.90;;
12425;SDS011;6277;49.824;9.562;2023-07-30T10:37:17;1.13;;;1.00;;
12425;SDS011;6277;49.824;9.562;2023-07-30T10:39:43;0.98;;;0.88;;
12425;SDS011;6277;49.824;9.562;2023-07-30T10:42:12;1.10;;;0.77;;
12425;SDS011;6277;49.824;9.562;2023-07-30T10:44:39;1.65;;;1.13;;
12425;SDS011;6277;49.824;9.562;2023-07-30T10:47:09;1.15;;;0.90;;
12425;SDS011;6277;49.824;9.562;2023-07-30T10:49:38;1.45;;;1.10;;
12425;SDS011;6277;49.824;9.562;2023-07-30T10:52:11;1.15;;;1.05;;
12425;SDS011;6277;49.824;9.562;2023-07-30T10:54:37;1.42;;;0.90;;
12425;SDS011;6277;49.824;9.562;2023-07-30T10:57:03;1.80;;;1.20;;
12425;SDS011;6277;49.824;9.562;2023-07-30T10:59:37;1.80;;;1.10;;
12425;SDS011;6277;49.824;9.562;2023-07-30T11:02:04;1.13;;;1.00;;
12425;SDS011;6277;49.824;9.562;2023-07-30T11:04:33;2.78;;;0.93;;
12425;SDS011;6277;49.824;9.562;2023-07-30T11:06:59;2.38;;;0.90;;
12425;SDS011;6277;49.824;9.562;2023-07-30T11:09:25;0.50;;;0.50;;
12425;SDS011;6277;49.824;9.562;2023-07-30T11:11:52;0.70;;;0.50;;
12425;SDS011;6277;49.824;9.562;2023-07-30T11:14:20;1.98;;;0.45;;
12425;SDS011;6277;49.824;9.562;2023-07-30T11:16:53;0.57;;;0.50;;
12425;SDS011;6277;49.824;9.562;2023-07-30T11:19:26;1.20;;;0.40;;
12425;SDS011;6277;49.824;9.562;2023-07-30T11:21:53;0.43;;;0.40;;
12425;SDS011;6277;49.824;9.562;2023-07-30T11:24:20;1.63;;;0.47;;
12425;SDS011;6277;49.824;9.562;2023-07-30T11:26:58;0.50;;;0.30;;
12425;SDS011;6277;49.824;9.562;2023-07-30T11:29:25;0.70;;;0.45;;
12425;SDS011;6277;49.824;9.562;2023-07-30T11:31:51;0.60;;;0.30;;
12425;SDS011;6277;49.824;9.562;2023-07-30T11:34:21;0.35;;;0.35;;
12425;SDS011;6277;49.824;9.562;2023-07-30T11:36:47;0.90;;;0.40;;
12425;SDS011;6277;49.824;9.562;2023-07-30T11:39:13;0.43;;;0.30;;
12425;SDS011;6277;49.824;9.562;2023-07-30T11:41:38;1.33;;;0.45;;
12425;SDS011;6277;49.824;9.562;2023-07-30T11:44:05;0.85;;;0.40;;
12425;SDS011;6277;49.824;9.562;2023-07-30T11:46:30;2.30;;;0.57;;
12425;SDS011;6277;49.824;9.562;2023-07-30T11:49:13;0.30;;;0.25;;
12425;SDS011;6277;49.824;9.562;2023-07-30T11:51:42;2.15;;;0.40;;
12425;SDS011;6277;49.824;9.562;2023-07-30T11:54:17;0.40;;;0.30;;
12425;SDS011;6277;49.824;9.562;2023-07-30T11:56:44;0.75;;;0.30;;
12425;SDS011;6277;49.824;9.562;2023-07-30T11:59:10;1.27;;;0.50;;
12425;SDS011;6277;49.824;9.562;2023-07-30T12:01:35;0.52;;;0.30;;
12425;SDS011;6277;49.824;9.562;2023-07-30T12:04:05;1.83;;;0.50;;
12425;SDS011;6277;49.824;9.562;2023-07-30T12:06:41;0.60;;;0.40;;
12425;SDS011;6277;49.824;9.562;2023-07-30T12:09:15;0.55;;;0.50;;
12425;SDS011;6277;49.824;9.562;2023-07-30T12:14:21;1.35;;;0.55;;
12425;SDS011;6277;49.824;9.562;2023-07-30T12:16:50;1.55;;;0.50;;
12425;SDS011;6277;49.824;9.562;2023-07-30T12:19:16;1.13;;;0.50;;
12425;SDS011;6277;49.824;9.562;2023-07-30T12:21:41;1.38;;;0.60;;
12425;SDS011;6277;49.824;9.562;2023-07-30T12:24:07;0.60;;;0.40;;
12425;SDS011;6277;49.824;9.562;2023-07-30T12:26:33;1.92;;;0.63;;
12425;SDS011;6277;49.824;9.562;2023-07-30T12:28:58;0.95;;;0.50;;
12425;SDS011;6277;49.824;9.562;2023-07-30T12:31:24;1.92;;;0.60;;
12425;SDS011;6277;49.824;9.562;2023-07-30T12:33:50;1.25;;;0.55;;
12425;SDS011;6277;49.824;9.562;2023-07-30T12:36:15;4.35;;;0.60;;
12425;SDS011;6277;49.824;9.562;2023-07-30T12:38:41;0.90;;;0.50;;
12425;SDS011;6277;49.824;9.562;2023-07-30T12:41:06;1.38;;;0.50;;
12425;SDS011;6277;49.824;9.562;2023-07-30T12:43:32;1.55;;;0.70;;
12425;SDS011;6277;49.824;9.562;2023-07-30T12:45:57;4.03;;;0.80;;
12425;SDS011;6277;49.824;9.562;2023-07-30T12:48:23;1.30;;;0.50;;
12425;SDS011;6277;49.824;9.562;2023-07-30T12:50:48;1.15;;;0.60;;
12425;SDS011;6277;49.824;9.562;2023-07-30T12:53:14;2.63;;;0.70;;
12425;SDS011;6277;49.824;9.562;2023-07-30T12:55:39;1.92;;;0.60;;
12425;SDS011;6277;49.824;9.562;2023-07-30T12:58:05;1.85;;;0.63;;
12425;SDS011;6277;49.824;9.562;2023-07-30T13:00:31;1.70;;;0.50;;
12425;SDS011;6277;49.824;9.562;2023-07-30T13:02:57;1.42;;;0.47;;
12425;SDS011;6277;49.824;9.562;2023-07-30T13:05:23;3.50;;;1.20;;
12425;SDS011;6277;49.824;9.562;2023-07-30T13:07:49;0.52;;;0.40;;
12425;SDS011;6277;49.824;9.562;2023-07-30T13:10:14;1.88;;;0.65;;
12425;SDS011;6277;49.824;9.562;2023-07-30T13:12:40;1.58;;;0.65;;
12425;SDS011;6277;49.824;9.562;2023-07-30T13:15:06;3.15;;;1.00;;
12425;SDS011;6277;49.824;9.562;2023-07-30T13:17:32;2.10;;;0.70;;
12425;SDS011;6277;49.824;9.562;2023-07-30T13:19:57;2.40;;;0.70;;
12425;SDS011;6277;49.824;9.562;2023-07-30T13:22:23;1.23;;;0.57;;
12425;SDS011;6277;49.824;9.562;2023-07-30T13:24:49;1.40;;;0.93;;
12425;SDS011;6277;49.824;9.562;2023-07-30T13:27:14;1.98;;;0.77;;
12425;SDS011;6277;49.824;9.562;2023-07-30T13:29:40;2.35;;;0.85;;
12425;SDS011;6277;49.824;9.562;2023-07-30T13:32:06;6.25;;;0.85;;
12425;SDS011;6277;49.824;9.562;2023-07-30T13:34:31;1.13;;;0.68;;
12425;SDS011;6277;49.824;9.562;2023-07-30T13:36:57;1.58;;;0.63;;
12425;SDS011;6277;49.824;9.562;2023-07-30T13:39:23;2.47;;;0.80;;
12425;SDS011;6277;49.824;9.562;2023-07-30T13:41:48;1.67;;;0.65;;
12425;SDS011;6277;49.824;9.562;2023-07-30T13:44:14;2.10;;;0.70;;
12425;SDS011;6277;49.824;9.562;2023-07-30T13:46:39;2.13;;;0.50;;
12425;SDS011;6277;49.824;9.562;2023-07-30T13:49:05;1.13;;;0.57;;
12425;SDS011;6277;49.824;9.562;2023-07-30T13:51:37;1.05;;;0.50;;
12425;SDS011;6277;49.824;9.562;2023-07-30T13:54:02;1.02;;;0.60;;
12425;SDS011;6277;49.824;9.562;2023-07-30T13:56:30;2.13;;;0.50;;
12425;SDS011;6277;49.824;9.562;2023-07-30T13:58:55;2.05;;;0.60;;
12425;SDS011;6277;49.824;9.562;2023-07-30T14:01:21;1.65;;;0.68;;
12425;SDS011;6277;49.824;9.562;2023-07-30T14:03:47;1.05;;;0.60;;
12425;SDS011;6277;49.824;9.562;2023-07-30T14:06:12;2.35;;;0.57;;
12425;SDS011;6277;49.824;9.562;2023-07-30T14:08:38;1.33;;;0.60;;
12425;SDS011;6277;49.824;9.562;2023-07-30T14:11:04;3.03;;;0.55;;
12425;SDS011;6277;49.824;9.562;2023-07-30T14:13:29;2.65;;;0.60;;
12425;SDS011;6277;49.824;9.562;2023-07-30T14:15:55;2.10;;;0.73;;
12425;SDS011;6277;49.824;9.562;2023-07-30T14:18:21;2.60;;;0.93;;
12425;SDS011;6277;49.824;9.562;2023-07-30T14:20:47;2.30;;;0.98;;
12425;SDS011;6277;49.824;9.562;2023-07-30T14:23:13;1.55;;;0.70;;
12425;SDS011;6277;49.824;9.562;2023-07-30T14:25:39;2.38;;;0.68;;
12425;SDS011;6277;49.824;9.562;2023-07-30T14:28:04;1.45;;;0.60;;
12425;SDS011;6277;49.824;9.562;2023-07-30T14:30:30;3.85;;;1.15;;
12425;SDS011;6277;49.824;9.562;2023-07-30T14:32:55;1.23;;;0.60;;
12425;SDS011;6277;49.824;9.562;2023-07-30T14:35:21;3.30;;;0.80;;
12425;SDS011;6277;49.824;9.562;2023-07-30T14:37:47;1.52;;;0.80;;
12425;SDS011;6277;49.824;9.562;2023-07-30T14:40:13;1.50;;;0.73;;
12425;SDS011;6277;49.824;9.562;2023-07-30T14:42:39;1.58;;;0.57;;
12425;SDS011;6277;49.824;9.562;2023-07-30T14:45:05;0.73;;;0.52;;
12425;SDS011;6277;49.824;9.562;2023-07-30T14:47:31;0.90;;;0.50;;
12425;SDS011;6277;49.824;9.562;2023-07-30T14:49:57;1.48;;;0.45;;
12425;SDS011;6277;49.824;9.562;2023-07-30T14:52:23;1.15;;;0.50;;
12425;SDS011;6277;49.824;9.562;2023-07-30T14:54:49;1.35;;;0.60;;
12425;SDS011;6277;49.824;9.562;2023-07-30T14:57:15;1.58;;;0.45;;
12425;SDS011;6277;49.824;9.562;2023-07-30T14:59:41;2.10;;;0.63;;
12425;SDS011;6277;49.824;9.562;2023-07-30T15:02:07;1.75;;;0.60;;